Time;durP1;ratioP1;P1;durP2;ratioP2;P2;SDS_P1;SDS_P2;PMS_P1;PMS_P2;Temp;Humidity;BMP_temperature;BMP_pressure;BME280_temperature;BME280_humidity;BME280_pressure;Samples;Min_cycle;Max_cycle;Signal;HPM_P1;HPM_P2
2021/03/02 00:01:08;;;;;;;5.90;2.30;;;12.20;78.60;;;;;;5041436;28;20578;-57
2021/03/02 00:03:37;;;;;;;7.40;2.90;;;12.10;78.90;;;;;;5043653;28;20029;-57
2021/03/02 00:06:04;;;;;;;3.55;2.53;;;12.10;79.00;;;;;;5044246;28;20066;-57
2021/03/02 00:08:30;;;;;;;7.13;3.53;;;12.20;80.00;;;;;;5043998;28;20041;-57
2021/03/02 00:11:00;;;;;;;7.55;3.40;;;12.20;79.70;;;;;;5041551;28;20036;-58
2021/03/02 00:13:26;;;;;;;6.00;3.20;;;12.10;79.90;;;;;;5043040;28;20036;-57
2021/03/02 00:15:52;;;;;;;7.13;3.30;;;12.10;80.20;;;;;;5042007;28;20098;-58
2021/03/02 00:18:20;;;;;;;11.10;3.65;;;11.90;80.70;;;;;;5044762;28;20458;-58
2021/03/02 00:20:54;;;;;;;11.18;4.22;;;11.70;81.50;;;;;;5045227;28;20029;-58
2021/03/02 00:23:23;;;;;;;;;;;11.70;81.60;;;;;;5045126;28;20033;-58
2021/03/02 00:25:53;;;;;;;8.90;4.18;;;11.70;81.70;;;;;;5044799;28;19912;-58
2021/03/02 00:28:22;;;;;;;6.82;3.65;;;11.80;82.00;;;;;;5044886;28;20542;-57
2021/03/02 00:30:50;;;;;;;8.30;4.15;;;11.80;82.00;;;;;;5042211;28;20036;-58
2021/03/02 00:33:17;;;;;;;9.80;3.92;;;11.70;81.80;;;;;;5044467;28;20021;-57
2021/03/02 00:35:44;;;;;;;9.20;4.10;;;11.60;81.90;;;;;;5043634;28;20025;-58
2021/03/02 00:38:09;;;;;;;7.72;4.10;;;11.70;81.60;;;;;;5045183;28;20028;-57
2021/03/02 00:40:35;;;;;;;7.88;3.70;;;11.80;81.80;;;;;;5044107;28;20021;-57
2021/03/02 00:43:01;;;;;;;8.63;4.07;;;11.70;82.10;;;;;;5044204;28;20612;-57
2021/03/02 00:45:26;;;;;;;6.82;3.90;;;11.70;82.50;;;;;;5043057;28;20033;-58
2021/03/02 00:47:53;;;;;;;11.32;4.28;;;11.60;83.20;;;;;;5044118;28;20527;-58
2021/03/02 00:50:23;;;;;;;9.45;4.25;;;11.50;83.80;;;;;;5044476;28;20025;-58
2021/03/02 00:52:49;;;;;;;11.73;4.53;;;11.40;83.50;;;;;;5043801;28;20017;-58
2021/03/02 00:55:16;;;;;;;6.22;3.85;;;11.40;84.10;;;;;;5043931;28;20029;-58
2021/03/02 00:57:41;;;;;;;9.20;4.07;;;11.30;83.90;;;;;;5044659;28;20044;-58
2021/03/02 01:00:08;;;;;;;6.80;3.33;;;11.20;83.90;;;;;;5044814;28;20021;-57
2021/03/02 01:02:35;;;;;;;6.50;3.80;;;11.30;83.80;;;;;;5043870;28;20104;-57
2021/03/02 01:05:00;;;;;;;9.45;3.60;;;11.30;83.60;;;;;;5043469;28;20029;-57
2021/03/02 01:07:26;;;;;;;7.57;3.72;;;11.20;83.30;;;;;;5043352;28;20102;-57
2021/03/02 01:09:52;;;;;;;8.63;3.95;;;11.30;82.50;;;;;;5044133;28;20037;-58
2021/03/02 01:12:17;;;;;;;8.30;3.30;;;11.30;83.80;;;;;;5043674;28;20515;-58
2021/03/02 01:14:44;;;;;;;8.15;3.90;;;11.30;83.50;;;;;;5044093;28;20044;-58
2021/03/02 01:17:10;;;;;;;8.15;3.55;;;11.20;84.80;;;;;;5044515;28;20029;-57
2021/03/02 01:19:36;;;;;;;8.32;3.30;;;11.20;84.70;;;;;;5043981;28;20025;-58
2021/03/02 01:22:01;;;;;;;7.22;3.42;;;11.40;84.90;;;;;;5044963;28;20517;-58
2021/03/02 01:24:27;;;;;;;6.68;3.55;;;11.40;84.80;;;;;;5047522;28;20534;-58
2021/03/02 01:26:53;;;;;;;7.63;3.85;;;11.40;85.40;;;;;;5047746;28;20108;-57
2021/03/02 01:29:20;;;;;;;5.30;3.70;;;11.30;85.60;;;;;;5047518;28;20043;-57
2021/03/02 01:31:47;;;;;;;6.85;3.72;;;11.20;85.60;;;;;;5047423;28;20478;-58
2021/03/02 01:34:13;;;;;;;6.20;3.17;;;11.30;85.40;;;;;;5047029;28;20510;-58
2021/03/02 01:36:39;;;;;;;7.80;3.67;;;11.30;85.30;;;;;;5048156;28;20057;-57
2021/03/02 01:39:05;;;;;;;8.48;3.53;;;11.30;84.90;;;;;;5047511;28;20534;-57
2021/03/02 01:41:30;;;;;;;5.43;3.08;;;11.30;84.40;;;;;;5047330;28;20029;-57
2021/03/02 01:43:56;;;;;;;7.40;3.33;;;11.40;84.80;;;;;;5047251;28;20036;-58
2021/03/02 01:46:22;;;;;;;6.70;3.63;;;11.30;84.70;;;;;;5046021;28;20348;-58
2021/03/02 01:48:48;;;;;;;7.32;3.78;;;11.30;85.00;;;;;;5047020;28;20037;-58
2021/03/02 01:51:14;;;;;;;10.15;3.75;;;11.10;85.30;;;;;;5047099;28;20078;-58
2021/03/02 01:53:40;;;;;;;7.32;3.33;;;10.70;86.40;;;;;;5047956;28;20040;-57
2021/03/02 01:56:06;;;;;;;5.60;3.15;;;10.60;85.60;;;;;;5047092;28;20029;-58
2021/03/02 01:58:32;;;;;;;6.80;3.25;;;10.80;85.60;;;;;;5046641;28;20041;-57
2021/03/02 02:01:01;;;;;;;7.47;3.20;;;10.60;85.30;;;;;;5047084;28;20048;-57
2021/03/02 02:03:50;;;;;;;6.53;2.80;;;10.60;86.10;;;;;;5046703;28;20518;-57
2021/03/02 02:06:36;;;;;;;6.38;2.90;;;10.80;85.40;;;;;;5047133;28;20051;-58
2021/03/02 02:09:19;;;;;;;4.78;2.70;;;10.90;85.40;;;;;;5047023;28;20025;-57
2021/03/02 02:12:04;;;;;;;3.40;2.38;;;10.70;85.30;;;;;;5078944;28;20029;-58
2021/03/02 02:14:30;;;;;;;;;;;10.80;85.30;;;;;;5047516;28;20140;-57
2021/03/02 02:17:02;;;;;;;5.45;3.00;;;10.70;85.00;;;;;;5046515;28;20379;-58
2021/03/02 02:19:45;;;;;;;7.25;2.60;;;10.90;85.00;;;;;;5046485;28;20029;-57
2021/03/02 02:22:21;;;;;;;5.18;2.47;;;10.90;83.60;;;;;;5046963;28;20570;-58
2021/03/02 02:25:28;;;;;;;5.20;2.20;;;11.00;84.00;;;;;;5047020;28;20059;-57
2021/03/02 02:27:58;;;;;;;4.22;2.40;;;11.20;83.90;;;;;;5051319;28;20052;-57
2021/03/02 02:30:25;;;;;;;4.82;1.98;;;11.10;83.70;;;;;;5047315;28;20021;-57
2021/03/02 02:32:52;;;;;;;4.78;2.20;;;11.20;83.80;;;;;;5044975;28;20155;-57
2021/03/02 02:35:21;;;;;;;3.72;2.30;;;11.30;84.00;;;;;;5045865;28;20029;-57
2021/03/02 02:37:49;;;;;;;6.20;2.60;;;11.40;84.30;;;;;;5046295;28;20036;-57
2021/03/02 02:40:16;;;;;;;5.38;2.30;;;11.30;84.20;;;;;;5046308;28;20025;-57
2021/03/02 02:42:44;;;;;;;3.75;2.15;;;11.10;84.00;;;;;;5045335;28;20485;-58
2021/03/02 02:45:11;;;;;;;5.70;2.17;;;11.20;84.60;;;;;;5045653;28;20394;-58
2021/03/02 02:47:38;;;;;;;8.00;2.45;;;11.20;84.20;;;;;;5045856;28;20032;-58
2021/03/02 02:50:05;;;;;;;5.15;2.55;;;11.30;84.70;;;;;;5078167;28;20036;-57
2021/03/02 02:52:32;;;;;;;2.75;2.05;;;11.20;84.00;;;;;;5045351;28;20029;-58
2021/03/02 02:54:58;;;;;;;4.00;2.25;;;11.10;83.90;;;;;;5046026;28;20029;-58
2021/03/02 02:57:26;;;;;;;4.18;1.98;;;11.20;84.70;;;;;;5045897;28;20037;-58
2021/03/02 02:59:53;;;;;;;4.13;2.33;;;11.20;85.00;;;;;;5046727;28;20028;-57
2021/03/02 03:02:25;;;;;;;6.20;2.50;;;11.20;85.10;;;;;;5045047;28;20376;-57
2021/03/02 03:05:04;;;;;;;4.45;2.13;;;11.20;85.10;;;;;;5045606;28;20519;-57
2021/03/02 03:07:46;;;;;;;5.20;2.45;;;11.20;84.60;;;;;;5045610;28;20044;-58
2021/03/02 03:10:12;;;;;;;3.92;2.10;;;11.10;84.60;;;;;;5045684;28;20419;-57
2021/03/02 03:12:47;;;;;;;7.72;2.50;;;11.00;85.20;;;;;;5045473;28;20446;-57
2021/03/02 03:15:15;;;;;;;5.15;2.60;;;10.90;84.80;;;;;;5045553;28;20029;-57
2021/03/02 03:17:49;;;;;;;3.78;2.15;;;11.00;85.30;;;;;;5045247;28;20036;-58
2021/03/02 03:20:16;;;;;;;4.65;2.40;;;11.00;84.80;;;;;;5045357;28;20025;-58
2021/03/02 03:22:42;;;;;;;3.70;1.88;;;11.00;84.30;;;;;;5045415;28;20056;-58
2021/03/02 03:25:10;;;;;;;4.50;2.42;;;10.90;85.60;;;;;;5045359;28;20017;-57
2021/03/02 03:27:50;;;;;;;6.35;2.75;;;10.80;86.10;;;;;;5045529;28;20410;-58
2021/03/02 03:30:17;;;;;;;7.00;2.42;;;10.70;86.60;;;;;;5045016;28;20032;-57
2021/03/02 03:32:46;;;;;;;5.28;2.90;;;10.70;86.90;;;;;;5044958;28;20045;-57
2021/03/02 03:35:13;;;;;;;6.05;3.00;;;10.70;87.40;;;;;;5045092;28;20039;-57
2021/03/02 03:37:40;;;;;;;6.15;3.22;;;10.70;87.20;;;;;;5045514;28;20147;-57
2021/03/02 03:40:06;;;;;;;6.10;3.30;;;10.70;88.30;;;;;;5044839;28;20024;-57
2021/03/02 03:42:32;;;;;;;5.63;3.13;;;10.60;88.30;;;;;;5044323;28;20037;-58
2021/03/02 03:44:58;;;;;;;5.78;3.42;;;10.70;89.00;;;;;;5043507;28;20394;-57
2021/03/02 03:47:23;;;;;;;5.70;3.78;;;10.70;90.00;;;;;;5045513;28;20498;-58
2021/03/02 03:49:49;;;;;;;5.78;3.45;;;10.60;90.10;;;;;;5045624;28;20303;-58
2021/03/02 03:52:17;;;;;;;9.05;4.47;;;10.60;90.30;;;;;;5044163;28;20503;-58
2021/03/02 03:54:45;;;;;;;7.10;4.20;;;10.60;90.20;;;;;;5044955;28;20025;-58
2021/03/02 03:57:13;;;;;;;8.68;4.32;;;10.70;90.10;;;;;;5044421;28;20021;-58
2021/03/02 03:59:40;;;;;;;7.43;3.63;;;10.60;89.60;;;;;;5045196;28;20017;-58
2021/03/02 04:02:09;;;;;;;5.55;3.47;;;10.70;89.60;;;;;;5044240;28;20029;-58
2021/03/02 04:04:36;;;;;;;9.45;3.85;;;10.50;89.30;;;;;;5044340;28;20036;-58
2021/03/02 04:07:02;;;;;;;6.20;3.25;;;10.60;90.00;;;;;;5044955;28;20060;-58
2021/03/02 04:09:28;;;;;;;5.60;3.55;;;10.40;90.10;;;;;;5044363;28;20071;-58
2021/03/02 04:11:55;;;;;;;7.20;3.67;;;10.40;90.10;;;;;;5044407;28;20177;-58
2021/03/02 04:14:21;;;;;;;7.25;4.00;;;10.40;90.00;;;;;;5044928;28;20051;-58
2021/03/02 04:16:47;;;;;;;4.88;3.00;;;10.40;90.20;;;;;;5044603;28;20157;-57
2021/03/02 04:19:13;;;;;;;5.90;3.67;;;10.40;90.30;;;;;;5044716;28;20029;-58
2021/03/02 04:21:39;;;;;;;5.95;3.70;;;10.20;90.40;;;;;;5044459;28;20531;-58
2021/03/02 04:24:05;;;;;;;9.15;3.80;;;10.30;90.40;;;;;;5044272;28;20032;-58
2021/03/02 04:26:32;;;;;;;5.88;3.70;;;10.30;90.40;;;;;;5044124;28;20070;-57
2021/03/02 04:28:59;;;;;;;7.63;3.72;;;10.30;90.60;;;;;;5045496;28;20312;-57
2021/03/02 04:31:25;;;;;;;6.55;3.90;;;10.30;90.50;;;;;;5043443;28;20025;-57
2021/03/02 04:33:51;;;;;;;7.03;4.03;;;10.30;90.20;;;;;;5043042;28;20025;-58
2021/03/02 04:36:17;;;;;;;5.95;3.50;;;10.20;90.40;;;;;;5045365;28;20031;-57
2021/03/02 04:38:42;;;;;;;8.07;4.63;;;9.90;91.20;;;;;;5045037;28;20047;-57
2021/03/02 04:41:08;;;;;;;6.55;3.80;;;10.00;91.20;;;;;;5028493;28;20080;-58
2021/03/02 04:43:34;;;;;;;8.48;4.72;;;10.00;91.40;;;;;;5065985;28;20023;-58
2021/03/02 04:45:59;;;;;;;10.05;5.50;;;9.60;91.90;;;;;;5065951;28;20027;-57
2021/03/02 04:48:25;;;;;;;8.93;4.88;;;9.50;92.20;;;;;;5065528;28;20433;-58
2021/03/02 04:50:51;;;;;;;9.38;5.28;;;9.50;92.40;;;;;;5046570;28;20025;-58
2021/03/02 04:53:16;;;;;;;7.63;4.70;;;9.60;92.30;;;;;;5044392;28;20092;-57
2021/03/02 04:55:42;;;;;;;9.82;4.82;;;9.60;92.30;;;;;;5046669;28;20100;-57
2021/03/02 04:58:08;;;;;;;12.25;5.20;;;9.50;92.60;;;;;;5049692;28;20438;-58
2021/03/02 05:00:34;;;;;;;9.75;5.40;;;9.40;92.60;;;;;;5049060;28;20442;-58
2021/03/02 05:02:59;;;;;;;11.55;6.18;;;9.30;92.90;;;;;;5049100;28;20028;-58
2021/03/02 05:05:25;;;;;;;8.25;5.18;;;9.40;92.80;;;;;;5049501;28;20071;-58
2021/03/02 05:07:51;;;;;;;7.95;5.00;;;9.30;92.80;;;;;;5049783;28;20086;-57
2021/03/02 05:10:16;;;;;;;10.18;5.63;;;9.20;92.80;;;;;;5048957;28;20072;-57
2021/03/02 05:12:42;;;;;;;10.65;5.40;;;9.40;92.80;;;;;;5049824;28;20029;-57
2021/03/02 05:15:08;;;;;;;9.00;5.43;;;9.60;92.30;;;;;;5049980;28;20655;-57
2021/03/02 05:17:34;;;;;;;7.32;4.65;;;9.80;92.00;;;;;;5048484;28;20076;-58
2021/03/02 05:20:00;;;;;;;7.30;4.28;;;9.60;92.10;;;;;;5048133;28;20445;-58
2021/03/02 05:22:25;;;;;;;8.18;4.63;;;9.50;92.40;;;;;;5046973;28;20025;-58
2021/03/02 05:24:52;;;;;;;9.18;4.95;;;9.50;92.30;;;;;;5047575;28;20533;-58
2021/03/02 05:27:18;;;;;;;7.65;4.50;;;9.40;92.30;;;;;;5047224;28;20063;-58
2021/03/02 05:29:43;;;;;;;7.30;4.03;;;9.40;92.30;;;;;;5047862;28;20069;-58
2021/03/02 05:32:10;;;;;;;8.18;3.83;;;9.30;92.00;;;;;;5047249;28;20029;-59
2021/03/02 05:34:35;;;;;;;6.85;3.47;;;9.50;92.00;;;;;;5048318;28;20025;-58
2021/03/02 05:37:02;;;;;;;5.28;2.92;;;9.60;91.40;;;;;;5047898;28;20052;-58
2021/03/02 05:39:28;;;;;;;6.13;3.30;;;9.80;91.10;;;;;;5046959;28;20067;-58
2021/03/02 05:41:55;;;;;;;4.40;2.88;;;9.80;90.90;;;;;;5046615;28;20075;-58
2021/03/02 05:44:20;;;;;;;5.72;2.97;;;9.80;90.90;;;;;;5047071;28;20096;-58
2021/03/02 05:46:48;;;;;;;4.63;2.95;;;9.90;90.80;;;;;;5047794;28;20100;-59
2021/03/02 05:49:14;;;;;;;5.40;3.38;;;9.90;90.80;;;;;;5047019;28;20029;-58
2021/03/02 05:51:41;;;;;;;6.15;3.00;;;10.00;90.90;;;;;;5047105;28;20078;-58
2021/03/02 05:54:10;;;;;;;5.55;2.70;;;10.10;90.80;;;;;;5046183;28;20025;-58
2021/03/02 05:56:38;;;;;;;5.35;2.63;;;10.00;90.70;;;;;;5047577;28;20024;-58
2021/03/02 05:59:04;;;;;;;4.20;2.80;;;9.90;90.80;;;;;;5047907;28;20013;-58
2021/03/02 06:01:30;;;;;;;6.00;2.90;;;9.80;90.70;;;;;;5046722;28;20055;-58
2021/03/02 06:03:55;;;;;;;3.40;2.40;;;9.90;90.90;;;;;;5047209;28;20104;-58
2021/03/02 06:06:21;;;;;;;5.97;2.40;;;9.70;90.90;;;;;;5046761;28;20025;-58
2021/03/02 06:08:47;;;;;;;4.72;2.67;;;9.80;90.90;;;;;;5046329;28;20021;-58
2021/03/02 06:11:22;;;;;;;6.40;2.53;;;9.80;91.10;;;;;;5046663;28;20047;-59
2021/03/02 06:13:49;;;;;;;4.93;2.70;;;9.90;90.80;;;;;;5046902;28;20028;-58
2021/03/02 06:16:14;;;;;;;6.35;2.90;;;10.00;90.90;;;;;;5046501;28;20043;-58
2021/03/02 06:18:51;;;;;;;4.60;3.03;;;10.20;90.80;;;;;;5046899;28;20029;-58
2021/03/02 06:21:18;;;;;;;8.55;3.70;;;10.20;90.80;;;;;;5046549;28;20051;-58
2021/03/02 06:23:51;;;;;;;7.40;4.60;;;9.80;91.30;;;;;;5046658;28;20127;-58
2021/03/02 06:26:27;;;;;;;9.27;4.63;;;9.70;91.90;;;;;;5046226;28;20052;-58
2021/03/02 06:28:56;;;;;;;7.90;4.85;;;9.60;92.10;;;;;;5046685;28;20386;-58
2021/03/02 06:31:44;;;;;;;10.10;5.63;;;9.40;92.60;;;;;;5046292;28;20028;-58
2021/03/02 06:34:12;;;;;;;11.80;5.95;;;9.30;92.90;;;;;;5045998;28;20124;-58
2021/03/02 06:36:40;;;;;;;11.77;5.93;;;9.20;93.10;;;;;;5047010;28;20021;-58
2021/03/02 06:39:32;;;;;;;11.50;6.15;;;9.20;93.40;;;;;;5046910;28;20511;-58
2021/03/02 06:42:18;;;;;;;11.88;6.70;;;9.10;93.60;;;;;;5046338;28;21027;-58
2021/03/02 06:45:03;;;;;;;11.00;5.97;;;9.10;93.70;;;;;;5046138;28;20021;-58
2021/03/02 06:47:36;;;;;;;11.57;7.00;;;9.00;94.00;;;;;;5046030;28;20037;-59
2021/03/02 06:50:23;;;;;;;10.00;6.00;;;8.90;94.30;;;;;;5046288;28;20048;-59
2021/03/02 06:52:48;;;;;;;12.82;6.68;;;9.00;94.00;;;;;;5045666;28;20024;-59
2021/03/02 06:55:26;;;;;;;11.25;6.00;;;9.10;94.00;;;;;;5045937;28;20028;-59
2021/03/02 06:58:15;;;;;;;9.88;5.53;;;9.10;93.90;;;;;;5045950;28;20126;-58
2021/03/02 07:00:50;;;;;;;8.60;5.90;;;9.10;94.00;;;;;;5045235;28;20031;-58
2021/03/02 07:03:33;;;;;;;13.73;6.05;;;9.00;94.10;;;;;;5046876;28;20032;-58
2021/03/02 07:06:03;;;;;;;8.63;5.07;;;8.90;94.20;;;;;;5046583;28;20526;-58
2021/03/02 07:08:30;;;;;;;12.93;5.40;;;8.90;94.30;;;;;;5047318;28;20025;-58
2021/03/02 07:10:56;;;;;;;9.75;5.28;;;9.00;94.40;;;;;;5047288;28;20045;-58
2021/03/02 07:13:22;;;;;;;9.80;5.65;;;9.00;94.20;;;;;;5046284;28;20029;-58
2021/03/02 07:15:51;;;;;;;13.27;6.20;;;9.00;94.40;;;;;;5045359;28;20090;-58
2021/03/02 07:18:20;;;;;;;11.32;6.18;;;9.10;94.50;;;;;;5046312;28;20017;-58
2021/03/02 07:20:50;;;;;;;13.27;6.32;;;9.10;94.60;;;;;;5047342;28;20033;-58
2021/03/02 07:23:17;;;;;;;11.50;6.25;;;9.10;94.70;;;;;;5045010;28;20044;-58
2021/03/02 07:25:46;;;;;;;11.15;5.55;;;9.00;94.80;;;;;;5047135;28;20021;-58
2021/03/02 07:28:16;;;;;;;9.63;5.32;;;9.10;94.70;;;;;;5046238;28;20037;-58
2021/03/02 07:30:45;;;;;;;10.05;5.60;;;9.20;94.60;;;;;;5046075;28;20158;-58
2021/03/02 07:33:11;;;;;;;8.40;5.25;;;9.30;94.60;;;;;;5047364;28;20420;-58
2021/03/02 07:35:37;;;;;;;8.50;4.82;;;9.40;94.40;;;;;;5052324;28;20052;-58
2021/03/02 07:38:20;;;;;;;7.53;4.60;;;9.50;94.50;;;;;;5048192;28;20041;-58
2021/03/02 07:40:58;;;;;;;8.35;4.80;;;9.60;94.30;;;;;;5043279;28;20036;-58
2021/03/02 07:43:37;;;;;;;6.65;3.65;;;9.80;94.10;;;;;;5044764;28;20075;-58
2021/03/02 07:46:42;;;;;;;6.90;3.95;;;10.00;93.90;;;;;;5045884;28;20032;-58
2021/03/02 07:49:22;;;;;;;9.05;3.88;;;10.10;94.10;;;;;;5023020;28;20467;-58
2021/03/02 07:51:57;;;;;;;8.65;4.07;;;10.20;93.80;;;;;;5042353;28;20068;-58
2021/03/02 07:54:23;;;;;;;7.32;3.95;;;10.20;93.80;;;;;;5044567;28;20108;-58
2021/03/02 07:56:49;;;;;;;8.90;4.90;;;10.20;93.90;;;;;;5044831;28;20031;-58
2021/03/02 07:59:16;;;;;;;9.80;4.68;;;10.20;94.20;;;;;;5044861;28;20029;-58
2021/03/02 08:01:42;;;;;;;8.35;4.70;;;10.30;94.10;;;;;;5043181;28;20195;-58
2021/03/02 08:04:13;;;;;;;8.38;4.82;;;10.40;94.10;;;;;;5045522;28;20025;-58
2021/03/02 08:06:44;;;;;;;9.82;5.32;;;10.40;94.10;;;;;;5045052;28;20024;-59
2021/03/02 08:09:26;;;;;;;10.23;4.88;;;10.40;94.10;;;;;;5043233;28;20028;-58
2021/03/02 08:12:15;;;;;;;7.13;4.65;;;10.50;94.10;;;;;;5044872;28;20183;-58
2021/03/02 08:14:41;;;;;;;8.95;5.35;;;10.60;94.00;;;;;;5038557;28;20491;-59
2021/03/02 08:17:07;;;;;;;10.85;5.20;;;10.70;94.00;;;;;;5044705;28;20032;-58
2021/03/02 08:19:38;;;;;;;7.57;3.67;;;10.70;94.30;;;;;;5044114;28;20032;-58
2021/03/02 08:22:19;;;;;;;9.63;5.40;;;10.80;94.10;;;;;;5045316;28;20028;-58
2021/03/02 08:24:59;;;;;;;7.25;4.88;;;10.80;94.00;;;;;;5044671;28;20511;-58
2021/03/02 08:27:39;;;;;;;5.38;3.30;;;10.90;94.30;;;;;;5042218;28;20025;-58
2021/03/02 08:30:36;;;;;;;7.55;3.97;;;11.00;94.40;;;;;;5044499;28;20033;-58
2021/03/02 08:33:10;;;;;;;10.00;5.28;;;11.10;94.40;;;;;;5039932;28;20120;-58
2021/03/02 08:35:40;;;;;;;7.85;4.95;;;11.10;94.30;;;;;;5044071;28;20036;-58
2021/03/02 08:38:11;;;;;;;7.70;4.72;;;11.20;94.20;;;;;;5044996;28;20104;-58
2021/03/02 08:40:37;;;;;;;6.35;4.38;;;11.30;94.50;;;;;;5045045;28;20029;-59
2021/03/02 08:43:07;;;;;;;7.13;4.72;;;11.30;94.30;;;;;;5044677;28;20086;-58
2021/03/02 08:45:43;;;;;;;6.30;3.70;;;11.50;94.40;;;;;;5044417;28;20021;-58
2021/03/02 08:48:41;;;;;;;6.82;3.92;;;11.60;94.30;;;;;;5044089;28;20396;-59
2021/03/02 08:51:08;;;;;;;5.60;3.70;;;11.60;94.00;;;;;;5032568;28;20112;-59
2021/03/02 08:53:40;;;;;;;5.82;3.55;;;11.80;94.20;;;;;;5044171;28;20375;-59
2021/03/02 08:56:26;;;;;;;7.72;4.07;;;11.90;94.40;;;;;;5044852;28;20060;-59
2021/03/02 08:58:52;;;;;;;5.22;3.75;;;12.00;93.70;;;;;;5043685;28;20037;-59
2021/03/02 09:01:21;;;;;;;5.20;3.08;;;12.00;94.00;;;;;;5043856;28;20625;-59
2021/03/02 09:03:48;;;;;;;7.35;3.72;;;12.10;94.20;;;;;;5044290;28;20023;-59
2021/03/02 09:06:22;;;;;;;5.07;2.88;;;12.20;93.70;;;;;;5043880;28;20037;-59
2021/03/02 09:08:57;;;;;;;4.95;3.03;;;12.20;93.70;;;;;;5044038;28;20244;-59
2021/03/02 09:11:55;;;;;;;5.03;2.70;;;12.40;93.50;;;;;;5044117;28;20033;-59
2021/03/02 09:14:22;;;;;;;3.10;2.20;;;12.50;93.70;;;;;;5039219;28;20538;-59
2021/03/02 09:16:48;;;;;;;4.68;2.17;;;12.60;93.40;;;;;;5044001;28;20032;-59
2021/03/02 09:19:17;;;;;;;5.95;2.50;;;12.70;92.90;;;;;;5043796;28;20029;-59
2021/03/02 09:21:49;;;;;;;3.17;2.10;;;12.80;93.20;;;;;;5044167;28;20025;-59
2021/03/02 09:24:20;;;;;;;4.03;2.45;;;12.80;93.00;;;;;;5043186;28;20026;-59
2021/03/02 09:26:50;;;;;;;3.25;1.90;;;12.90;92.80;;;;;;5044002;28;20415;-59
2021/03/02 09:29:17;;;;;;;3.05;1.90;;;13.00;92.80;;;;;;5043551;28;20406;-58
2021/03/02 09:31:43;;;;;;;3.22;2.05;;;13.10;92.80;;;;;;5043987;28;20029;-59
2021/03/02 09:34:09;;;;;;;2.55;1.67;;;13.20;91.60;;;;;;5043923;28;20029;-59
2021/03/02 09:36:35;;;;;;;3.53;2.10;;;13.30;90.10;;;;;;5044789;28;20416;-59
2021/03/02 09:39:19;;;;;;;3.28;2.00;;;13.30;83.10;;;;;;5043912;28;20064;-58
2021/03/02 09:41:45;;;;;;;2.83;1.90;;;13.50;81.80;;;;;;5043791;28;20017;-59
2021/03/02 09:44:25;;;;;;;7.05;2.60;;;13.50;77.00;;;;;;5045987;28;20256;-59
2021/03/02 09:46:56;;;;;;;5.20;2.58;;;13.50;76.10;;;;;;5047578;28;20325;-58
2021/03/02 09:49:46;;;;;;;5.93;2.35;;;13.50;75.30;;;;;;5046143;28;20545;-59
2021/03/02 09:52:20;;;;;;;4.00;1.63;;;13.60;75.80;;;;;;5046531;28;20151;-59
2021/03/02 09:55:05;;;;;;;3.42;1.70;;;13.70;75.70;;;;;;5047244;28;20116;-58
2021/03/02 09:57:30;;;;;;;3.55;1.98;;;13.70;75.20;;;;;;5046708;28;20032;-59
2021/03/02 09:59:57;;;;;;;7.50;2.22;;;13.80;73.80;;;;;;5047178;28;20029;-59
2021/03/02 10:02:23;;;;;;;2.30;1.60;;;13.90;74.90;;;;;;5046963;28;20107;-59
2021/03/02 10:04:49;;;;;;;3.15;1.88;;;14.00;74.70;;;;;;5046989;28;20025;-58
2021/03/02 10:07:15;;;;;;;5.53;1.92;;;14.00;74.40;;;;;;5046778;28;20040;-59
2021/03/02 10:09:47;;;;;;;6.50;2.85;;;14.00;74.50;;;;;;5047197;28;20037;-60
2021/03/02 10:12:14;;;;;;;4.50;2.03;;;14.00;73.90;;;;;;5046216;28;20080;-59
2021/03/02 10:14:42;;;;;;;5.82;2.20;;;14.20;72.90;;;;;;5046730;28;20672;-59
2021/03/02 10:17:08;;;;;;;3.95;1.88;;;14.10;73.80;;;;;;5046732;28;20473;-59
2021/03/02 10:19:35;;;;;;;3.40;1.88;;;14.30;73.10;;;;;;5047176;28;20100;-59
2021/03/02 10:22:03;;;;;;;3.42;1.67;;;14.40;72.70;;;;;;5046562;28;20021;-59
2021/03/02 10:24:35;;;;;;;4.18;2.03;;;14.30;72.80;;;;;;5046731;28;20072;-59
2021/03/02 10:27:15;;;;;;;4.32;2.38;;;14.30;72.90;;;;;;5046331;28;20070;-59
2021/03/02 10:29:42;;;;;;;5.65;1.83;;;14.40;72.70;;;;;;5046738;28;20450;-59
2021/03/02 10:32:09;;;;;;;3.85;2.47;;;14.50;72.90;;;;;;5046388;28;20052;-59
2021/03/02 10:34:37;;;;;;;5.47;3.00;;;14.40;71.80;;;;;;5047290;28;20029;-58
2021/03/02 10:37:10;;;;;;;4.65;3.08;;;14.30;72.10;;;;;;5046822;28;20021;-59
2021/03/02 10:39:37;;;;;;;6.43;2.70;;;14.40;71.00;;;;;;5047226;28;20438;-59
2021/03/02 10:42:05;;;;;;;5.60;2.25;;;14.60;72.50;;;;;;5046481;28;20046;-59
2021/03/02 10:44:31;;;;;;;3.65;2.20;;;14.70;72.50;;;;;;5046128;28;20021;-59
2021/03/02 10:46:57;;;;;;;6.13;3.05;;;14.80;72.20;;;;;;5046111;28;21054;-58
2021/03/02 10:49:24;;;;;;;6.25;2.50;;;14.60;70.50;;;;;;5046119;28;20056;-59
2021/03/02 10:51:51;;;;;;;6.50;3.40;;;14.70;70.90;;;;;;5046379;28;20458;-59
2021/03/02 10:54:17;;;;;;;4.95;3.08;;;14.80;72.10;;;;;;5044918;28;20025;-59
2021/03/02 10:56:42;;;;;;;4.82;2.72;;;14.80;71.30;;;;;;5045991;28;20037;-59
2021/03/02 10:59:08;;;;;;;8.70;3.58;;;14.80;72.10;;;;;;5045804;28;20032;-59
2021/03/02 11:01:34;;;;;;;8.23;3.45;;;14.80;71.90;;;;;;5046283;28;20167;-58
2021/03/02 11:04:00;;;;;;;7.95;2.90;;;14.80;71.60;;;;;;5044476;28;20108;-59
2021/03/02 11:06:28;;;;;;;10.80;4.00;;;15.00;71.90;;;;;;5045810;28;20028;-58
2021/03/02 11:08:56;;;;;;;10.32;3.83;;;15.00;68.50;;;;;;5045976;28;20028;-59
2021/03/02 11:11:22;;;;;;;7.35;2.88;;;14.90;69.90;;;;;;5045463;28;20074;-59
2021/03/02 11:13:51;;;;;;;5.75;2.70;;;15.10;72.00;;;;;;5045550;28;20017;-59
2021/03/02 11:16:17;;;;;;;5.20;2.60;;;15.10;70.20;;;;;;5045485;28;20083;-59
2021/03/02 11:18:43;;;;;;;6.93;3.28;;;15.10;68.20;;;;;;5045630;28;20070;-59
2021/03/02 11:21:11;;;;;;;8.40;2.80;;;14.90;66.60;;;;;;5045656;28;20070;-58
2021/03/02 11:23:36;;;;;;;9.40;2.95;;;14.90;66.10;;;;;;5046052;28;20025;-59
2021/03/02 11:26:03;;;;;;;4.72;2.60;;;15.00;66.00;;;;;;5045601;28;20519;-59
2021/03/02 11:28:29;;;;;;;4.47;2.72;;;15.10;65.70;;;;;;5044975;28;20025;-59
2021/03/02 11:30:54;;;;;;;3.45;1.92;;;15.20;66.20;;;;;;5045515;28;20446;-59
2021/03/02 11:33:20;;;;;;;6.47;2.88;;;15.30;66.30;;;;;;5045086;28;20032;-59
2021/03/02 11:35:45;;;;;;;5.75;2.70;;;15.10;64.70;;;;;;5045671;28;20414;-59
2021/03/02 11:38:15;;;;;;;4.68;2.25;;;15.10;63.60;;;;;;5044798;28;20025;-59
2021/03/02 11:40:42;;;;;;;7.55;2.92;;;15.20;64.30;;;;;;5045100;28;20029;-59
2021/03/02 11:43:07;;;;;;;4.88;2.30;;;15.40;65.00;;;;;;5045363;28;20013;-59
2021/03/02 11:45:36;;;;;;;4.32;2.58;;;15.40;64.00;;;;;;5045575;28;20483;-59
2021/03/02 11:48:01;;;;;;;4.78;2.65;;;15.40;63.80;;;;;;5045205;28;20031;-58
2021/03/02 11:50:27;;;;;;;7.72;3.15;;;15.60;63.80;;;;;;5044816;28;20491;-59
2021/03/02 11:52:52;;;;;;;5.25;2.50;;;15.50;62.70;;;;;;5044498;28;20075;-59
2021/03/02 11:55:19;;;;;;;3.10;2.10;;;15.40;62.10;;;;;;5044852;28;20086;-59
2021/03/02 11:57:46;;;;;;;6.65;2.15;;;15.20;61.10;;;;;;5044666;28;20029;-59
2021/03/02 12:00:20;;;;;;;4.20;2.28;;;15.20;61.20;;;;;;5044562;28;20032;-59
2021/03/02 12:02:47;;;;;;;5.88;2.60;;;15.00;61.20;;;;;;5044974;28;20023;-59
2021/03/02 12:05:15;;;;;;;5.00;2.67;;;14.90;61.70;;;;;;5044169;28;20021;-59
2021/03/02 12:07:41;;;;;;;3.75;2.30;;;14.90;61.90;;;;;;5044753;28;20075;-59
2021/03/02 12:10:09;;;;;;;3.03;1.90;;;14.90;62.00;;;;;;5045243;28;20514;-58
2021/03/02 12:12:36;;;;;;;5.25;2.22;;;14.90;62.50;;;;;;5045229;28;20522;-58
2021/03/02 12:15:03;;;;;;;5.05;2.63;;;14.90;62.60;;;;;;5040436;28;20100;-60
2021/03/02 12:17:29;;;;;;;9.15;2.63;;;14.90;62.80;;;;;;5044396;28;20170;-58
2021/03/02 12:19:54;;;;;;;4.22;2.33;;;14.80;62.40;;;;;;5044813;28;20536;-58
2021/03/02 12:22:20;;;;;;;4.45;2.17;;;14.80;63.10;;;;;;5044203;28;20017;-58
2021/03/02 12:24:46;;;;;;;3.65;1.83;;;14.90;63.20;;;;;;5044459;28;20219;-58
2021/03/02 12:27:13;;;;;;;4.63;2.08;;;14.90;63.30;;;;;;5041854;28;20071;-58
2021/03/02 12:29:38;;;;;;;5.68;3.00;;;14.90;63.00;;;;;;5044006;28;20556;-58
2021/03/02 12:32:05;;;;;;;4.38;2.30;;;14.80;62.40;;;;;;5043544;28;20033;-58
2021/03/02 12:34:31;;;;;;;3.65;2.15;;;14.80;63.00;;;;;;5043673;28;20029;-58
2021/03/02 12:36:56;;;;;;;5.70;1.98;;;14.90;62.50;;;;;;5043658;28;20379;-58
2021/03/02 12:39:23;;;;;;;7.30;2.67;;;14.90;62.60;;;;;;5042883;28;20025;-58
2021/03/02 12:41:48;;;;;;;3.35;2.15;;;14.90;62.30;;;;;;5041018;28;20040;-58
2021/03/02 12:44:14;;;;;;;9.18;2.75;;;15.00;62.80;;;;;;5043497;28;20511;-58
2021/03/02 12:46:40;;;;;;;7.47;2.22;;;14.80;62.60;;;;;;5043243;28;20017;-58
2021/03/02 12:49:05;;;;;;;5.20;2.40;;;14.80;62.20;;;;;;5044867;28;20036;-59
2021/03/02 12:51:31;;;;;;;4.28;2.33;;;14.90;62.40;;;;;;5043565;28;20029;-58
2021/03/02 12:53:57;;;;;;;3.17;2.03;;;15.00;63.30;;;;;;5043321;28;20060;-58
2021/03/02 12:56:23;;;;;;;4.15;1.90;;;14.90;63.50;;;;;;5043187;28;20104;-58
2021/03/02 12:58:49;;;;;;;2.60;1.90;;;15.00;63.60;;;;;;5043616;28;20530;-58